Time;durP1;ratioP1;P1;durP2;ratioP2;P2;SDS_P1;SDS_P2;PMS_P1;PMS_P2;Temp;Humidity;BMP_temperature;BMP_pressure;BME280_temperature;BME280_humidity;BME280_pressure;Samples;Min_cycle;Max_cycle;Signal;HPM_P1;HPM_P2
2022/07/10 00:00:17;;;;;;;3.87;3.63;;;;;;;;;;5092595;28;20288;-87
2022/07/10 00:02:44;;;;;;;3.63;3.43;;;;;;;;;;5093147;28;20199;-86
2022/07/10 00:05:12;;;;;;;3.70;3.40;;;;;;;;;;5093010;28;20672;-87
2022/07/10 00:07:39;;;;;;;3.40;3.20;;;;;;;;;;5092898;28;20206;-87
2022/07/10 00:10:07;;;;;;;3.93;3.63;;;;;;;;;;5092672;28;20188;-87
2022/07/10 00:12:36;;;;;;;4.17;3.87;;;;;;;;;;5092819;28;20634;-87
2022/07/10 00:15:03;;;;;;;3.80;3.50;;;;;;;;;;5092886;28;20661;-87
2022/07/10 00:17:30;;;;;;;4.30;3.90;;;;;;;;;;5092666;28;20192;-87
2022/07/10 00:19:57;;;;;;;3.80;3.60;;;;;;;;;;5092616;28;20602;-87
2022/07/10 00:22:24;;;;;;;4.53;4.07;;;;;;;;;;5092613;28;20621;-87
2022/07/10 00:24:52;;;;;;;4.63;3.93;;;;;;;;;;5092114;28;20200;-87
2022/07/10 00:27:19;;;;;;;4.13;3.83;;;;;;;;;;5093152;28;20285;-85
2022/07/10 00:29:47;;;;;;;3.97;3.77;;;;;;;;;;5092789;28;20195;-87
2022/07/10 00:32:14;;;;;;;4.63;4.23;;;;;;;;;;5092377;28;20200;-88
2022/07/10 00:34:41;;;;;;;3.80;3.60;;;;;;;;;;5092402;28;20253;-87
2022/07/10 00:37:08;;;;;;;4.00;3.60;;;;;;;;;;5092520;28;20192;-87
2022/07/10 00:39:36;;;;;;;4.50;4.13;;;;;;;;;;5092443;28;20216;-87
2022/07/10 00:42:10;;;;;;;4.67;4.33;;;;;;;;;;5092346;28;20725;-86
2022/07/10 00:44:37;;;;;;;4.30;4.00;;;;;;;;;;5092198;28;20196;-87
2022/07/10 00:47:06;;;;;;;4.50;4.03;;;;;;;;;;5092434;28;20196;-87
2022/07/10 00:49:33;;;;;;;4.67;4.37;;;;;;;;;;5092085;28;20201;-87
2022/07/10 00:52:01;;;;;;;4.93;4.43;;;;;;;;;;5092656;28;20622;-87
2022/07/10 00:54:29;;;;;;;4.53;4.23;;;;;;;;;;5092480;28;20200;-88
2022/07/10 00:56:56;;;;;;;4.30;4.00;;;;;;;;;;5092567;28;20249;-88
2022/07/10 00:59:24;;;;;;;4.50;4.10;;;;;;;;;;5092001;28;20220;-87
2022/07/10 01:01:51;;;;;;;5.20;4.70;;;;;;;;;;5092583;28;20630;-87
2022/07/10 01:04:20;;;;;;;4.93;4.57;;;;;;;;;;5092085;28;20200;-87
2022/07/10 01:06:47;;;;;;;5.00;4.60;;;;;;;;;;5092283;28;20196;-87
2022/07/10 01:09:14;;;;;;;5.27;4.90;;;;;;;;;;5092177;28;20630;-87
2022/07/10 01:11:41;;;;;;;5.07;4.67;;;;;;;;;;5092133;28;20192;-87
2022/07/10 01:14:09;;;;;;;5.17;4.27;;;;;;;;;;5092020;28;20208;-88
2022/07/10 01:16:36;;;;;;;5.13;4.73;;;;;;;;;;5091957;28;20196;-86
2022/07/10 01:19:03;;;;;;;5.03;4.63;;;;;;;;;;5092061;28;20738;-87
2022/07/10 01:21:33;;;;;;;4.53;4.13;;;;;;;;;;5092304;28;20588;-87
2022/07/10 01:24:01;;;;;;;4.77;4.20;;;;;;;;;;5092186;28;20189;-87
2022/07/10 01:26:28;;;;;;;5.37;4.97;;;;;;;;;;5092125;28;20684;-86
2022/07/10 01:28:55;;;;;;;4.60;4.30;;;;;;;;;;5091902;28;20291;-87
2022/07/10 01:31:27;;;;;;;4.90;4.30;;;;;;;;;;5091928;28;20195;-87
2022/07/10 01:33:54;;;;;;;5.07;4.70;;;;;;;;;;5091786;28;20215;-87
2022/07/10 01:36:22;;;;;;;4.30;4.00;;;;;;;;;;5092132;28;20222;-86
2022/07/10 01:38:52;;;;;;;5.10;4.70;;;;;;;;;;5094939;28;20195;-86
2022/07/10 01:41:19;;;;;;;4.30;4.00;;;;;;;;;;5095618;28;20653;-87
2022/07/10 01:43:47;;;;;;;4.60;4.27;;;;;;;;;;5095276;28;20626;-87
2022/07/10 01:46:15;;;;;;;4.43;4.03;;;;;;;;;;5095303;28;20231;-86
2022/07/10 01:48:42;;;;;;;4.33;4.00;;;;;;;;;;5095150;28;20196;-86
2022/07/10 01:51:10;;;;;;;4.40;3.93;;;;;;;;;;5095048;28;20189;-87
2022/07/10 01:53:37;;;;;;;5.17;4.77;;;;;;;;;;5095289;28;20199;-86
2022/07/10 01:56:08;;;;;;;4.33;4.00;;;;;;;;;;5095144;28;20657;-86
2022/07/10 01:58:36;;;;;;;4.50;3.93;;;;;;;;;;5094909;28;20189;-86
2022/07/10 02:01:03;;;;;;;4.43;4.03;;;;;;;;;;5094648;28;20242;-87
2022/07/10 02:06:15;;;;;;;4.40;4.10;;;;;;;;;;5094882;28;20282;-87
2022/07/10 02:08:42;;;;;;;4.50;4.20;;;;;;;;;;5095016;28;20208;-87
2022/07/10 02:11:12;;;;;;;4.77;4.47;;;;;;;;;;5094880;28;20286;-87
2022/07/10 02:13:39;;;;;;;4.90;4.50;;;;;;;;;;5094921;28;20196;-86
2022/07/10 02:16:07;;;;;;;5.03;4.63;;;;;;;;;;5094803;28;20203;-87
2022/07/10 02:18:34;;;;;;;4.93;4.63;;;;;;;;;;5094695;28;20206;-86
2022/07/10 02:21:02;;;;;;;4.67;4.37;;;;;;;;;;5094576;28;20235;-87
2022/07/10 02:23:29;;;;;;;5.37;4.97;;;;;;;;;;5094683;28;20206;-87
2022/07/10 02:25:56;;;;;;;4.63;4.27;;;;;;;;;;5094678;28;20196;-87
2022/07/10 02:28:25;;;;;;;4.40;4.10;;;;;;;;;;5094694;28;20204;-87
2022/07/10 02:30:52;;;;;;;4.83;4.53;;;;;;;;;;5094701;28;20652;-88
2022/07/10 02:33:19;;;;;;;4.60;4.23;;;;;;;;;;5094674;28;20200;-85
2022/07/10 02:35:46;;;;;;;4.60;4.20;;;;;;;;;;5094178;28;20201;-87
2022/07/10 02:38:13;;;;;;;5.40;4.97;;;;;;;;;;5094267;28;20202;-87
2022/07/10 02:40:40;;;;;;;5.23;4.73;;;;;;;;;;5094242;28;20216;-87
2022/07/10 02:43:07;;;;;;;7.97;4.87;;;;;;;;;;5094269;28;20200;-87
2022/07/10 02:45:36;;;;;;;4.97;4.67;;;;;;;;;;5094216;28;20198;-87
2022/07/10 02:48:03;;;;;;;5.37;5.07;;;;;;;;;;5094307;28;20200;-87
2022/07/10 02:50:30;;;;;;;5.07;4.67;;;;;;;;;;5094432;28;20193;-87
2022/07/10 02:52:57;;;;;;;5.37;4.97;;;;;;;;;;5094597;28;20192;-87
2022/07/10 02:55:24;;;;;;;5.40;5.00;;;;;;;;;;5094160;28;20222;-87
2022/07/10 02:57:52;;;;;;;4.83;4.53;;;;;;;;;;5094048;28;20196;-87
2022/07/10 03:00:19;;;;;;;4.63;4.23;;;;;;;;;;5093762;28;20224;-87
2022/07/10 03:02:47;;;;;;;4.27;4.03;;;;;;;;;;5094118;28;20298;-88
2022/07/10 03:05:14;;;;;;;4.77;4.47;;;;;;;;;;5094011;28;20195;-86
2022/07/10 03:07:42;;;;;;;5.03;4.63;;;;;;;;;;5094102;28;20208;-87
2022/07/10 03:10:10;;;;;;;5.40;4.90;;;;;;;;;;5093615;28;20196;-87
2022/07/10 03:12:37;;;;;;;4.43;4.13;;;;;;;;;;5093662;28;20193;-87
2022/07/10 03:15:06;;;;;;;4.03;3.80;;;;;;;;;;5093767;28;20577;-87
2022/07/10 03:17:33;;;;;;;4.90;4.50;;;;;;;;;;5093572;28;20185;-87
2022/07/10 03:20:02;;;;;;;5.60;5.20;;;;;;;;;;5093482;28;20222;-87
2022/07/10 03:22:30;;;;;;;5.13;4.73;;;;;;;;;;5093449;28;20188;-87
2022/07/10 03:24:57;;;;;;;4.47;4.17;;;;;;;;;;5093553;28;20232;-87
2022/07/10 03:27:24;;;;;;;4.83;4.43;;;;;;;;;;5093912;28;20583;-87
2022/07/10 03:29:52;;;;;;;5.70;4.73;;;;;;;;;;5093434;28;20210;-88
2022/07/10 03:32:19;;;;;;;5.87;4.87;;;;;;;;;;5093291;28;20196;-88
2022/07/10 03:34:46;;;;;;;6.20;4.97;;;;;;;;;;5093699;28;20265;-88
2022/07/10 03:37:14;;;;;;;6.90;4.90;;;;;;;;;;5093915;28;20184;-87
2022/07/10 03:39:42;;;;;;;5.13;4.73;;;;;;;;;;5093230;28;20218;-88
2022/07/10 03:42:09;;;;;;;5.07;4.50;;;;;;;;;;5093607;28;20215;-87
2022/07/10 03:44:36;;;;;;;5.53;5.03;;;;;;;;;;5093184;28;20195;-87
2022/07/10 03:47:04;;;;;;;5.10;4.80;;;;;;;;;;5093080;28;20203;-87
2022/07/10 03:49:31;;;;;;;4.50;4.20;;;;;;;;;;5093226;28;20201;-87
2022/07/10 03:52:00;;;;;;;5.87;5.23;;;;;;;;;;5093190;28;20195;-88
2022/07/10 03:54:29;;;;;;;4.87;4.47;;;;;;;;;;5093304;28;20283;-87
2022/07/10 03:59:41;;;;;;;4.70;4.23;;;;;;;;;;5092314;28;20289;-87
2022/07/10 04:02:08;;;;;;;6.10;5.53;;;;;;;;;;5092481;28;20208;-87
2022/07/10 04:04:35;;;;;;;5.70;4.63;;;;;;;;;;5092570;28;20195;-87
2022/07/10 04:07:03;;;;;;;5.60;4.53;;;;;;;;;;5092734;28;20207;-87
2022/07/10 04:09:32;;;;;;;4.50;4.20;;;;;;;;;;5092553;28;20202;-87
2022/07/10 04:11:59;;;;;;;4.97;4.57;;;;;;;;;;5092774;28;20265;-87
2022/07/10 04:14:26;;;;;;;6.90;5.10;;;;;;;;;;5092569;28;20199;-87
2022/07/10 04:16:53;;;;;;;4.83;4.53;;;;;;;;;;5092652;28;20694;-86
2022/07/10 04:19:21;;;;;;;4.20;3.90;;;;;;;;;;5092631;28;20197;-87
2022/07/10 04:21:49;;;;;;;4.90;4.50;;;;;;;;;;5092554;28;20322;-86
2022/07/10 04:24:16;;;;;;;4.20;3.90;;;;;;;;;;5092371;28;20195;-86
2022/07/10 04:26:44;;;;;;;5.80;5.20;;;;;;;;;;5092346;28;20261;-87
2022/07/10 04:29:11;;;;;;;7.17;4.63;;;;;;;;;;5092405;28;20277;-87
2022/07/10 04:31:39;;;;;;;5.43;4.93;;;;;;;;;;5092557;28;20196;-86
2022/07/10 04:34:06;;;;;;;4.57;4.27;;;;;;;;;;5092261;28;20196;-87
2022/07/10 04:36:33;;;;;;;4.97;4.10;;;;;;;;;;5092611;28;20628;-86
2022/07/10 04:39:00;;;;;;;6.27;5.67;;;;;;;;;;5092166;28;20660;-86
2022/07/10 04:41:27;;;;;;;5.17;4.53;;;;;;;;;;5092500;28;20223;-86
2022/07/10 04:43:55;;;;;;;4.87;4.47;;;;;;;;;;5092339;28;20200;-87
2022/07/10 04:46:23;;;;;;;5.60;4.80;;;;;;;;;;5092374;28;20211;-86
2022/07/10 04:48:50;;;;;;;4.90;4.50;;;;;;;;;;5092308;28;20257;-86
2022/07/10 04:51:17;;;;;;;5.87;4.77;;;;;;;;;;5092025;28;20192;-87
2022/07/10 04:53:44;;;;;;;6.10;4.60;;;;;;;;;;5092209;28;20200;-86
2022/07/10 04:56:11;;;;;;;4.90;4.40;;;;;;;;;;5092164;28;20202;-87
2022/07/10 04:58:38;;;;;;;6.20;4.37;;;;;;;;;;5092301;28;20203;-86
2022/07/10 05:01:07;;;;;;;5.30;4.90;;;;;;;;;;5091760;28;20319;-87
2022/07/10 05:03:34;;;;;;;5.07;4.67;;;;;;;;;;5092127;28;20208;-86
2022/07/10 05:06:01;;;;;;;4.37;4.03;;;;;;;;;;5092265;28;20706;-87
2022/07/10 05:08:28;;;;;;;6.57;4.57;;;;;;;;;;5092266;28;20555;-86
2022/07/10 05:10:55;;;;;;;4.17;3.87;;;;;;;;;;5092509;28;20661;-87
2022/07/10 05:13:22;;;;;;;4.87;4.57;;;;;;;;;;5095941;28;20211;-86
2022/07/10 05:15:49;;;;;;;4.63;4.23;;;;;;;;;;5095716;28;20200;-87
2022/07/10 05:18:18;;;;;;;4.53;4.13;;;;;;;;;;5096011;28;20575;-87
2022/07/10 05:20:47;;;;;;;4.43;4.03;;;;;;;;;;5096091;28;20595;-86
2022/07/10 05:23:14;;;;;;;4.67;4.23;;;;;;;;;;5095548;28;20196;-87
2022/07/10 05:25:42;;;;;;;4.93;4.50;;;;;;;;;;5095452;28;20204;-86
2022/07/10 05:28:09;;;;;;;4.93;4.57;;;;;;;;;;5095875;28;20200;-87
2022/07/10 05:30:36;;;;;;;4.40;4.10;;;;;;;;;;5095387;28;20196;-87
2022/07/10 05:33:04;;;;;;;4.60;4.03;;;;;;;;;;5095513;28;20695;-86
2022/07/10 05:35:32;;;;;;;4.43;4.03;;;;;;;;;;5095485;28;20207;-87
2022/07/10 05:37:59;;;;;;;5.77;4.40;;;;;;;;;;5095595;28;20661;-86
2022/07/10 05:40:27;;;;;;;5.77;4.50;;;;;;;;;;5095385;28;20196;-87
2022/07/10 05:42:54;;;;;;;4.47;4.07;;;;;;;;;;5095643;28;20567;-86
2022/07/10 05:45:21;;;;;;;4.40;3.87;;;;;;;;;;5095160;28;20202;-87
2022/07/10 05:47:48;;;;;;;4.13;3.77;;;;;;;;;;5095526;28;20200;-86
2022/07/10 05:50:15;;;;;;;7.87;4.03;;;;;;;;;;5095429;28;20222;-87
2022/07/10 05:52:44;;;;;;;4.07;3.77;;;;;;;;;;5095183;28;20200;-86
2022/07/10 05:55:11;;;;;;;4.57;4.00;;;;;;;;;;5095011;28;20196;-87
2022/07/10 05:57:38;;;;;;;3.97;3.67;;;;;;;;;;5094933;28;20184;-86
2022/07/10 06:00:07;;;;;;;5.77;4.53;;;;;;;;;;5094764;28;20236;-86
2022/07/10 06:02:34;;;;;;;4.87;4.37;;;;;;;;;;5094901;28;20228;-86
2022/07/10 06:05:01;;;;;;;4.90;4.23;;;;;;;;;;5095093;28;20223;-86
2022/07/10 06:07:29;;;;;;;11.43;4.43;;;;;;;;;;5095080;28;20629;-87
2022/07/10 06:09:57;;;;;;;3.80;3.60;;;;;;;;;;5094617;28;20291;-86
2022/07/10 06:12:24;;;;;;;4.27;3.87;;;;;;;;;;5094856;28;20188;-86
2022/07/10 06:14:51;;;;;;;5.13;4.07;;;;;;;;;;5094640;28;20193;-86
2022/07/10 06:17:18;;;;;;;4.80;4.30;;;;;;;;;;5094986;28;20196;-87
2022/07/10 06:19:46;;;;;;;4.30;4.00;;;;;;;;;;5094581;28;20249;-86
2022/07/10 06:24:58;;;;;;;4.83;4.27;;;;;;;;;;5094680;28;20180;-87
2022/07/10 06:27:26;;;;;;;5.00;4.43;;;;;;;;;;5094565;28;20653;-86
2022/07/10 06:29:53;;;;;;;4.30;4.00;;;;;;;;;;5094541;28;20649;-86
2022/07/10 06:32:20;;;;;;;4.43;4.03;;;;;;;;;;5094593;28;20195;-86
2022/07/10 06:34:48;;;;;;;4.43;4.07;;;;;;;;;;5094541;28;20622;-87
2022/07/10 06:37:15;;;;;;;4.33;3.93;;;;;;;;;;5094184;28;20199;-86
2022/07/10 06:39:42;;;;;;;5.00;3.63;;;;;;;;;;5093994;28;20669;-87
2022/07/10 06:42:10;;;;;;;5.47;4.73;;;;;;;;;;5094076;28;20230;-86
2022/07/10 06:44:38;;;;;;;4.23;3.93;;;;;;;;;;5093848;28;20196;-86
2022/07/10 06:49:50;;;;;;;4.60;4.20;;;;;;;;;;5094231;28;20245;-86
2022/07/10 06:52:17;;;;;;;5.63;4.13;;;;;;;;;;5093848;28;20320;-86
2022/07/10 06:54:44;;;;;;;8.13;4.37;;;;;;;;;;5093788;28;20204;-87
2022/07/10 06:57:13;;;;;;;4.10;3.80;;;;;;;;;;5093996;28;20200;-86
2022/07/10 06:59:40;;;;;;;3.67;3.47;;;;;;;;;;5093207;28;20239;-86
2022/07/10 07:02:07;;;;;;;4.03;3.60;;;;;;;;;;5093716;28;20219;-86
2022/07/10 07:04:34;;;;;;;3.77;3.47;;;;;;;;;;5093914;28;20565;-86
2022/07/10 07:07:03;;;;;;;4.07;3.77;;;;;;;;;;5093632;28;20208;-87
2022/07/10 07:09:30;;;;;;;4.27;3.87;;;;;;;;;;5093638;28;20204;-86
2022/07/10 07:11:57;;;;;;;4.63;3.80;;;;;;;;;;5093642;28;20193;-86
2022/07/10 07:14:25;;;;;;;4.53;4.13;;;;;;;;;;5093588;28;20200;-86
2022/07/10 07:17:03;;;;;;;4.10;3.80;;;;;;;;;;5093376;28;20196;-86
2022/07/10 07:23:09;;;;;;;3.93;3.63;;;;;;;;;;5093206;28;20220;-87
2022/07/10 07:25:05;;;;;;;4.43;3.83;;;;;;;;;;5093277;28;20186;-86
2022/07/10 07:27:33;;;;;;;3.50;3.30;;;;;;;;;;5093418;28;20584;-86
2022/07/10 07:30:04;;;;;;;3.60;3.40;;;;;;;;;;5093110;28;20616;-87
2022/07/10 07:32:31;;;;;;;4.33;4.03;;;;;;;;;;5093376;28;20207;-87
2022/07/10 07:34:58;;;;;;;4.67;4.37;;;;;;;;;;5093172;28;20196;-87
2022/07/10 07:37:36;;;;;;;3.83;3.53;;;;;;;;;;5092988;28;20196;-86
2022/07/10 07:40:05;;;;;;;3.80;3.50;;;;;;;;;;5093264;28;20340;-86
2022/07/10 07:42:32;;;;;;;4.13;3.83;;;;;;;;;;5093313;28;20220;-86
2022/07/10 07:44:59;;;;;;;4.03;3.73;;;;;;;;;;5093135;28;20250;-87
2022/07/10 07:47:28;;;;;;;4.13;3.53;;;;;;;;;;5093202;28;20200;-87
2022/07/10 07:49:55;;;;;;;4.20;3.90;;;;;;;;;;5092993;28;20196;-86
2022/07/10 07:52:23;;;;;;;4.20;3.87;;;;;;;;;;5092783;28;20196;-86
2022/07/10 07:54:50;;;;;;;7.13;3.80;;;;;;;;;;5092927;28;20279;-87
2022/07/10 07:57:18;;;;;;;4.90;3.50;;;;;;;;;;5092844;28;20188;-86
2022/07/10 07:59:45;;;;;;;4.40;3.73;;;;;;;;;;5092599;28;20236;-86
2022/07/10 08:02:12;;;;;;;4.10;3.80;;;;;;;;;;5092606;28;20215;-87
2022/07/10 08:04:42;;;;;;;4.57;4.00;;;;;;;;;;5092535;28;20207;-86
2022/07/10 08:07:09;;;;;;;4.40;4.00;;;;;;;;;;5092322;28;20192;-86
2022/07/10 08:09:37;;;;;;;4.00;3.67;;;;;;;;;;5092575;28;20207;-86
2022/07/10 08:12:04;;;;;;;3.57;3.27;;;;;;;;;;5092868;28;20188;-87
2022/07/10 08:14:31;;;;;;;3.83;3.53;;;;;;;;;;5092280;28;20225;-86
2022/07/10 08:16:59;;;;;;;4.27;3.57;;;;;;;;;;5092363;28;20724;-87
2022/07/10 08:19:26;;;;;;;3.90;3.60;;;;;;;;;;5092355;28;20192;-87
2022/07/10 08:21:55;;;;;;;4.50;4.10;;;;;;;;;;5092685;28;20655;-87
2022/07/10 08:24:22;;;;;;;7.00;4.03;;;;;;;;;;5092830;28;20638;-88
2022/07/10 08:26:50;;;;;;;3.50;3.20;;;;;;;;;;5092318;28;20192;-87
2022/07/10 08:29:18;;;;;;;4.67;3.70;;;;;;;;;;5092587;28;20344;-86
2022/07/10 08:31:45;;;;;;;14.00;3.90;;;;;;;;;;5092337;28;20199;-86
2022/07/10 08:34:12;;;;;;;3.50;3.30;;;;;;;;;;5092076;28;20196;-87
2022/07/10 08:36:39;;;;;;;4.07;3.60;;;;;;;;;;5092227;28;20207;-87
2022/07/10 08:39:07;;;;;;;6.30;3.43;;;;;;;;;;5092230;28;20192;-87
2022/07/10 08:41:36;;;;;;;4.30;3.77;;;;;;;;;;5092180;28;20259;-86
2022/07/10 08:44:03;;;;;;;3.90;3.60;;;;;;;;;;5092056;28;20627;-86
2022/07/10 08:46:32;;;;;;;4.17;3.73;;;;;;;;;;5094013;28;20184;-86
2022/07/10 08:49:01;;;;;;;3.83;3.27;;;;;;;;;;5096130;28;20656;-86
2022/07/10 08:51:37;;;;;;;3.83;3.40;;;;;;;;;;5096317;28;20253;-86
2022/07/10 08:54:07;;;;;;;3.97;3.47;;;;;;;;;;5095958;28;20188;-86
2022/07/10 08:56:35;;;;;;;3.13;2.83;;;;;;;;;;5096300;28;20253;-87
2022/07/10 08:59:05;;;;;;;3.87;3.30;;;;;;;;;;5095871;28;20680;-87
2022/07/10 09:01:32;;;;;;;4.20;3.17;;;;;;;;;;5095950;28;20627;-86
2022/07/10 09:03:59;;;;;;;3.87;3.57;;;;;;;;;;5095981;28;20196;-86
2022/07/10 09:06:27;;;;;;;4.07;3.67;;;;;;;;;;5095949;28;20284;-86
2022/07/10 09:09:03;;;;;;;3.73;3.43;;;;;;;;;;5095854;28;20192;-86
2022/07/10 09:11:33;;;;;;;4.03;3.63;;;;;;;;;;5095980;28;20257;-87
2022/07/10 09:14:03;;;;;;;3.70;3.40;;;;;;;;;;5095887;28;20279;-86
2022/07/10 09:16:32;;;;;;;3.70;3.40;;;;;;;;;;5095895;28;20620;-86
2022/07/10 09:19:16;;;;;;;4.13;3.67;;;;;;;;;;5095718;28;20694;-86
2022/07/10 09:21:44;;;;;;;3.93;3.70;;;;;;;;;;5095586;28;20637;-87
2022/07/10 09:24:11;;;;;;;3.70;3.50;;;;;;;;;;5095787;28;20211;-86
2022/07/10 09:26:40;;;;;;;6.00;3.37;;;;;;;;;;5095859;28;20265;-86
2022/07/10 09:29:08;;;;;;;3.93;3.30;;;;;;;;;;5095585;28;20279;-86
2022/07/10 09:31:52;;;;;;;4.03;3.63;;;;;;;;;;5095585;28;20287;-87
2022/07/10 09:34:19;;;;;;;5.67;3.73;;;;;;;;;;5095315;28;20254;-86
2022/07/10 09:36:46;;;;;;;3.77;3.47;;;;;;;;;;5095592;28;20196;-86
2022/07/10 09:39:13;;;;;;;3.60;3.40;;;;;;;;;;5095667;28;20640;-87
2022/07/10 09:41:42;;;;;;;4.03;3.63;;;;;;;;;;5095113;28;20196;-85
2022/07/10 09:44:11;;;;;;;4.97;3.60;;;;;;;;;;5094880;28;20196;-86
2022/07/10 09:46:40;;;;;;;3.33;3.13;;;;;;;;;;5095170;28;20196;-86
2022/07/10 09:49:09;;;;;;;3.83;3.50;;;;;;;;;;5095319;28;20254;-86
2022/07/10 09:51:39;;;;;;;5.47;3.23;;;;;;;;;;5095134;28;20211;-87
2022/07/10 09:54:08;;;;;;;3.13;2.93;;;;;;;;;;5095308;28;20181;-87
2022/07/10 09:56:42;;;;;;;4.80;3.47;;;;;;;;;;5095288;28;20201;-87
2022/07/10 09:59:14;;;;;;;4.27;3.23;;;;;;;;;;5093837;28;20189;-87
2022/07/10 10:01:47;;;;;;;3.73;3.33;;;;;;;;;;5094800;28;20188;-86
2022/07/10 10:04:14;;;;;;;4.13;3.40;;;;;;;;;;5094932;28;20180;-87
2022/07/10 10:06:42;;;;;;;3.73;3.43;;;;;;;;;;5094885;28;20196;-87
2022/07/10 10:09:11;;;;;;;8.47;3.73;;;;;;;;;;5094951;28;20578;-87
2022/07/10 10:11:39;;;;;;;4.30;3.90;;;;;;;;;;5094778;28;20192;-87
2022/07/10 10:14:08;;;;;;;3.50;3.30;;;;;;;;;;5094961;28;20200;-86
2022/07/10 10:16:36;;;;;;;5.13;3.67;;;;;;;;;;5094436;28;20199;-87
2022/07/10 10:21:48;;;;;;;3.93;3.63;;;;;;;;;;5094844;28;20314;-86
2022/07/10 10:24:15;;;;;;;4.00;3.80;;;;;;;;;;5094797;28;20196;-86
2022/07/10 10:26:43;;;;;;;3.80;3.50;;;;;;;;;;5094317;28;20615;-86
2022/07/10 10:29:12;;;;;;;4.57;3.93;;;;;;;;;;5094668;28;20200;-87
2022/07/10 10:31:39;;;;;;;3.80;3.50;;;;;;;;;;5094782;28;20582;-87
2022/07/10 10:34:07;;;;;;;6.67;3.27;;;;;;;;;;5094306;28;20193;-87
2022/07/10 10:36:47;;;;;;;3.97;3.67;;;;;;;;;;5094079;28;20196;-86
2022/07/10 10:39:16;;;;;;;3.67;3.37;;;;;;;;;;5094488;28;20656;-87
2022/07/10 10:41:47;;;;;;;4.30;3.60;;;;;;;;;;5094603;28;20253;-87
2022/07/10 10:44:22;;;;;;;4.10;3.80;;;;;;;;;;5094108;28;20211;-87
2022/07/10 10:47:00;;;;;;;4.33;3.50;;;;;;;;;;5094578;28;20184;-87
2022/07/10 10:49:28;;;;;;;4.40;4.10;;;;;;;;;;5094066;28;20192;-87
2022/07/10 10:51:59;;;;;;;4.47;4.17;;;;;;;;;;5094340;28;20582;-87
2022/07/10 10:54:26;;;;;;;5.13;3.53;;;;;;;;;;5093860;28;20196;-87
2022/07/10 10:57:15;;;;;;;4.23;3.93;;;;;;;;;;5094306;28;20200;-87
2022/07/10 10:59:50;;;;;;;4.37;4.07;;;;;;;;;;5093813;28;20236;-86
2022/07/10 11:02:26;;;;;;;3.60;3.40;;;;;;;;;;5094144;28;20281;-87
2022/07/10 11:04:53;;;;;;;6.07;4.23;;;;;;;;;;5093801;28;20203;-87
2022/07/10 11:07:52;;;;;;;4.47;3.67;;;;;;;;;;5093530;28;20192;-87
2022/07/10 11:10:29;;;;;;;5.17;4.07;;;;;;;;;;5089625;28;20287;-87
2022/07/10 11:12:59;;;;;;;4.03;3.67;;;;;;;;;;5093620;28;20202;-87
2022/07/10 11:15:29;;;;;;;4.10;3.80;;;;;;;;;;5093560;28;20287;-87
2022/07/10 11:17:57;;;;;;;4.13;3.83;;;;;;;;;;5093330;28;20283;-86
2022/07/10 11:20:24;;;;;;;3.77;3.47;;;;;;;;;;5093682;28;20224;-87
2022/07/10 11:23:03;;;;;;;4.20;3.80;;;;;;;;;;5093485;28;20606;-87
2022/07/10 11:25:42;;;;;;;4.27;3.93;;;;;;;;;;5093210;28;20184;-87
2022/07/10 11:28:11;;;;;;;5.00;3.67;;;;;;;;;;5093277;28;20185;-87
2022/07/10 11:30:47;;;;;;;6.43;5.87;;;;;;;;;;5093319;28;20257;-87
2022/07/10 11:33:15;;;;;;;6.40;6.00;;;;;;;;;;5093764;28;20191;-87
2022/07/10 11:35:45;;;;;;;6.63;6.03;;;;;;;;;;5093706;28;20204;-88
2022/07/10 11:38:13;;;;;;;7.33;6.73;;;;;;;;;;5093931;28;20560;-87
2022/07/10 11:40:40;;;;;;;6.47;5.97;;;;;;;;;;5093300;28;20200;-88
2022/07/10 11:43:09;;;;;;;6.63;6.03;;;;;;;;;;5093219;28;20243;-87
2022/07/10 11:45:38;;;;;;;6.47;5.97;;;;;;;;;;5093429;28;20242;-88
2022/07/10 11:48:08;;;;;;;6.40;5.83;;;;;;;;;;5093282;28;20199;-89
2022/07/10 11:50:37;;;;;;;7.47;6.70;;;;;;;;;;5093539;28;20679;-88
2022/07/10 11:53:05;;;;;;;5.77;5.37;;;;;;;;;;5093198;28;20665;-88
2022/07/10 11:55:36;;;;;;;6.17;5.73;;;;;;;;;;5093196;28;20192;-88
2022/07/10 11:58:14;;;;;;;6.07;5.67;;;;;;;;;;5093248;28;20272;-88
2022/07/10 12:00:42;;;;;;;6.70;6.17;;;;;;;;;;5092897;28;20750;-88
2022/07/10 12:03:21;;;;;;;6.23;5.73;;;;;;;;;;5093356;28;20227;-89
2022/07/10 12:05:48;;;;;;;5.70;5.30;;;;;;;;;;5093689;28;20616;-87
2022/07/10 12:08:16;;;;;;;6.47;5.93;;;;;;;;;;5092855;28;20279;-88
2022/07/10 12:10:43;;;;;;;6.30;5.80;;;;;;;;;;5092939;28;20687;-88
2022/07/10 12:13:11;;;;;;;7.33;6.13;;;;;;;;;;5093410;28;20583;-87
2022/07/10 12:15:40;;;;;;;6.03;5.63;;;;;;;;;;5093153;28;20246;-88
2022/07/10 12:18:08;;;;;;;6.23;5.67;;;;;;;;;;5093021;28;20231;-87
2022/07/10 12:20:42;;;;;;;6.10;5.63;;;;;;;;;;5092198;28;20196;-87
2022/07/10 12:23:10;;;;;;;7.13;6.53;;;;;;;;;;5092948;28;20294;-87
2022/07/10 12:25:37;;;;;;;6.77;6.27;;;;;;;;;;5092533;28;20199;-87
2022/07/10 12:28:04;;;;;;;7.50;6.67;;;;;;;;;;5093194;28;20205;-87
2022/07/10 12:30:41;;;;;;;6.80;6.30;;;;;;;;;;5092775;28;20263;-88
2022/07/10 12:33:10;;;;;;;8.33;7.67;;;;;;;;;;5093225;28;20180;-87
2022/07/10 12:35:53;;;;;;;8.27;6.80;;;;;;;;;;5092880;28;20280;-88
2022/07/10 12:38:21;;;;;;;6.30;5.80;;;;;;;;;;5092743;28;20220;-87
2022/07/10 12:40:48;;;;;;;6.67;6.07;;;;;;;;;;5092487;28;20208;-87
2022/07/10 12:43:26;;;;;;;6.00;5.50;;;;;;;;;;5092572;28;20606;-88
2022/07/10 12:46:15;;;;;;;6.00;5.33;;;;;;;;;;5092907;28;20241;-88
2022/07/10 12:48:44;;;;;;;7.10;6.40;;;;;;;;;;5092798;28;20176;-88
2022/07/10 12:51:25;;;;;;;6.43;6.03;;;;;;;;;;5092857;28;20557;-88
2022/07/10 12:53:52;;;;;;;6.53;5.63;;;;;;;;;;5092675;28;20185;-88
2022/07/10 12:56:37;;;;;;;8.50;5.83;;;;;;;;;;5092671;28;20207;-87
2022/07/10 12:59:13;;;;;;;6.37;5.77;;;;;;;;;;5092630;28;20196;-87
2022/07/10 13:01:42;;;;;;;6.67;6.27;;;;;;;;;;5092547;28;20639;-87
2022/07/10 13:04:10;;;;;;;6.70;6.20;;;;;;;;;;5092654;28;20228;-87
2022/07/10 13:06:40;;;;;;;6.97;6.00;;;;;;;;;;5093184;28;20250;-88
2022/07/10 13:09:20;;;;;;;6.63;6.03;;;;;;;;;;5092681;28;20256;-88
2022/07/10 13:11:47;;;;;;;6.53;5.97;;;;;;;;;;5092527;28;20204;-88
2022/07/10 13:14:14;;;;;;;6.90;6.30;;;;;;;;;;5092026;28;20684;-87
2022/07/10 13:16:41;;;;;;;6.43;5.93;;;;;;;;;;5092186;28;20195;-87
2022/07/10 13:19:09;;;;;;;6.00;5.40;;;;;;;;;;5092172;28;20196;-88
2022/07/10 13:21:36;;;;;;;5.70;5.30;;;;;;;;;;5092486;28;20243;-87
2022/07/10 13:24:05;;;;;;;7.10;6.50;;;;;;;;;;5091743;28;20212;-87
2022/07/10 13:26:32;;;;;;;5.87;5.47;;;;;;;;;;5092222;28;20279;-86
2022/07/10 13:29:00;;;;;;;5.80;5.40;;;;;;;;;;5092325;28;20200;-87
2022/07/10 13:31:27;;;;;;;6.00;5.50;;;;;;;;;;5092045;28;20223;-87
2022/07/10 13:33:54;;;;;;;6.97;6.47;;;;;;;;;;5095951;28;20639;-86
2022/07/10 13:36:21;;;;;;;5.50;5.10;;;;;;;;;;5096023;28;20265;-87
2022/07/10 13:38:49;;;;;;;5.77;5.27;;;;;;;;;;5095917;28;20247;-87
2022/07/10 13:41:18;;;;;;;5.30;4.90;;;;;;;;;;5095559;28;20193;-88
2022/07/10 13:43:45;;;;;;;5.53;5.03;;;;;;;;;;5095864;28;20718;-88
2022/07/10 13:46:13;;;;;;;5.27;4.77;;;;;;;;;;5095653;28;20196;-87
2022/07/10 13:48:40;;;;;;;5.90;5.30;;;;;;;;;;5095575;28;20203;-87
2022/07/10 13:51:07;;;;;;;5.17;4.87;;;;;;;;;;5095412;28;20292;-87
2022/07/10 13:53:34;;;;;;;5.30;4.80;;;;;;;;;;5095693;28;20202;-87
2022/07/10 13:56:01;;;;;;;5.40;5.10;;;;;;;;;;5095393;28;20570;-87
2022/07/10 13:58:30;;;;;;;5.33;4.93;;;;;;;;;;5095167;28;20200;-87
2022/07/10 14:00:59;;;;;;;5.17;4.77;;;;;;;;;;5095195;28;20281;-87
2022/07/10 14:03:26;;;;;;;5.27;4.80;;;;;;;;;;5095316;28;20234;-86
2022/07/10 14:05:53;;;;;;;5.77;4.63;;;;;;;;;;5095235;28;20272;-87
2022/07/10 14:08:20;;;;;;;5.00;4.60;;;;;;;;;;5094883;28;20279;-86
2022/07/10 14:10:47;;;;;;;5.17;4.67;;;;;;;;;;5094894;28;20665;-86
2022/07/10 14:13:14;;;;;;;4.63;4.30;;;;;;;;;;5095112;28;20200;-86
2022/07/10 14:15:45;;;;;;;4.77;4.47;;;;;;;;;;5095070;28;20200;-87
2022/07/10 14:18:12;;;;;;;4.93;4.53;;;;;;;;;;5094878;28;20180;-89
2022/07/10 14:23:24;;;;;;;4.53;4.23;;;;;;;;;;5094715;28;20208;-87
2022/07/10 14:25:51;;;;;;;4.37;4.07;;;;;;;;;;5094256;28;20257;-87
2022/07/10 14:28:18;;;;;;;4.77;4.37;;;;;;;;;;5094941;28;20245;-88
2022/07/10 14:30:46;;;;;;;4.30;3.20;;;;;;;;;;5095276;28;20205;-87
2022/07/10 14:33:14;;;;;;;2.63;2.53;;;;;;;;;;5095228;28;20200;-87
2022/07/10 14:35:41;;;;;;;3.30;2.93;;;;;;;;;;5094387;28;20192;-87
2022/07/10 14:38:08;;;;;;;3.20;3.00;;;;;;;;;;5094533;28;20207;-87
2022/07/10 14:40:35;;;;;;;3.00;2.80;;;;;;;;;;5094383;28;20661;-87
2022/07/10 14:43:02;;;;;;;3.97;2.73;;;;;;;;;;5094152;28;20238;-87
2022/07/10 14:45:29;;;;;;;2.90;2.80;;;;;;;;;;5093823;28;20256;-87
2022/07/10 14:47:58;;;;;;;4.27;2.73;;;;;;;;;;5094774;28;20234;-87
2022/07/10 14:50:25;;;;;;;3.17;2.97;;;;;;;;;;5094352;28;20215;-87
2022/07/10 14:52:52;;;;;;;3.80;3.50;;;;;;;;;;5094329;28;20196;-88
2022/07/10 14:55:19;;;;;;;3.80;3.50;;;;;;;;;;5094056;28;20188;-88
2022/07/10 14:57:47;;;;;;;3.60;3.30;;;;;;;;;;5094160;28;20200;-86
2022/07/10 15:00:16;;;;;;;3.70;3.40;;;;;;;;;;5093631;28;20271;-87
2022/07/10 15:02:43;;;;;;;4.00;3.57;;;;;;;;;;5094461;28;20207;-87
2022/07/10 15:05:12;;;;;;;3.50;3.27;;;;;;;;;;5093738;28;20814;-87
2022/07/10 15:07:39;;;;;;;3.77;3.57;;;;;;;;;;5093874;28;20578;-87
2022/07/10 15:10:08;;;;;;;2.77;2.63;;;;;;;;;;5093696;28;20738;-87